Time;durP1;ratioP1;P1;durP2;ratioP2;P2;SDS_P1;SDS_P2;PMS_P1;PMS_P2;Temp;Humidity;BMP_temperature;BMP_pressure;BME280_temperature;BME280_humidity;BME280_pressure;Samples;Min_cycle;Max_cycle;Signal;HPM_P1;HPM_P2
2021/10/03 00:01:16;;;;;;;4.07;1.60;;;18.90;99.90;;;;;;4985405;28;20218;-91
2021/10/03 00:03:53;;;;;;;3.43;1.67;;;18.80;99.90;;;;;;4982117;28;20253;-91
2021/10/03 00:06:29;;;;;;;3.33;1.77;;;18.80;99.90;;;;;;4982269;28;20207;-92
2021/10/03 00:09:01;;;;;;;4.30;1.90;;;18.70;99.90;;;;;;4984183;28;20215;-91
2021/10/03 00:11:33;;;;;;;3.63;1.67;;;18.80;99.90;;;;;;4981429;28;20214;-91
2021/10/03 00:14:07;;;;;;;3.33;1.50;;;18.70;99.90;;;;;;4982958;28;20222;-91
2021/10/03 00:16:38;;;;;;;3.47;1.77;;;18.60;99.90;;;;;;4984792;28;20308;-92
2021/10/03 00:19:09;;;;;;;3.87;1.80;;;18.60;99.90;;;;;;4999965;28;20206;-92
2021/10/03 00:21:45;;;;;;;3.70;1.60;;;18.60;99.90;;;;;;4999839;28;20230;-91
2021/10/03 00:24:17;;;;;;;3.77;1.40;;;18.70;99.90;;;;;;4999310;28;20297;-91
2021/10/03 00:26:49;;;;;;;3.07;1.53;;;18.60;99.90;;;;;;5000421;28;20234;-91
2021/10/03 00:29:23;;;;;;;2.43;1.53;;;18.60;99.90;;;;;;5009662;28;20202;-91
2021/10/03 00:31:56;;;;;;;3.87;1.70;;;18.50;99.90;;;;;;5019515;28;20216;-91
2021/10/03 00:34:28;;;;;;;6.17;2.13;;;18.60;99.90;;;;;;5019021;28;20194;-91
2021/10/03 00:37:00;;;;;;;3.77;1.70;;;18.60;99.90;;;;;;5019254;28;20260;-90
2021/10/03 00:39:31;;;;;;;3.63;1.60;;;18.50;99.90;;;;;;5012464;28;20594;-91
2021/10/03 00:42:03;;;;;;;3.87;2.00;;;18.50;99.90;;;;;;5008168;28;20645;-91
2021/10/03 00:44:37;;;;;;;3.87;1.30;;;18.40;99.90;;;;;;5002510;28;20245;-91
2021/10/03 00:47:11;;;;;;;2.43;1.43;;;18.40;99.90;;;;;;5001216;28;20240;-89
2021/10/03 00:52:31;;;;;;;5.93;2.13;;;18.30;99.90;;;;;;5001410;28;20206;-96
2021/10/03 00:55:02;;;;;;;3.87;1.90;;;18.00;99.90;;;;;;5002163;28;20210;-96
2021/10/03 00:57:33;;;;;;;3.50;1.80;;;17.90;99.90;;;;;;5001839;28;20280;-95
2021/10/03 01:00:15;;;;;;;4.17;1.80;;;17.80;99.90;;;;;;5003798;28;20272;-96
2021/10/03 01:02:47;;;;;;;4.50;1.90;;;17.50;99.90;;;;;;5001345;28;20272;-96
2021/10/03 01:05:19;;;;;;;4.90;1.63;;;17.40;99.90;;;;;;4999710;28;20297;-95
2021/10/03 01:07:52;;;;;;;4.83;1.97;;;17.30;99.90;;;;;;5000889;28;20268;-96
2021/10/03 01:10:30;;;;;;;4.13;1.60;;;17.10;99.90;;;;;;5000583;28;20222;-96
2021/10/03 01:13:07;;;;;;;7.10;2.00;;;16.90;99.90;;;;;;5001318;28;20210;-95
2021/10/03 01:15:43;;;;;;;3.80;1.70;;;16.80;99.90;;;;;;5015911;28;20236;-96
2021/10/03 01:18:16;;;;;;;4.03;2.03;;;16.70;99.90;;;;;;4994542;28;20223;-95
2021/10/03 01:20:48;;;;;;;5.17;2.70;;;16.60;99.90;;;;;;5003574;28;20214;-96
2021/10/03 01:23:22;;;;;;;6.13;2.70;;;16.60;99.90;;;;;;5001590;28;20229;-96
2021/10/03 01:25:54;;;;;;;7.43;3.37;;;16.60;99.90;;;;;;5000108;28;20240;-95
2021/10/03 01:28:25;;;;;;;9.20;3.73;;;16.50;99.90;;;;;;4998410;28;20686;-95
2021/10/03 01:30:58;;;;;;;7.23;3.67;;;16.50;99.90;;;;;;4999871;28;20201;-95
2021/10/03 01:33:32;;;;;;;7.50;3.17;;;16.40;99.90;;;;;;4998589;28;20202;-95
2021/10/03 01:36:06;;;;;;;7.53;3.77;;;16.30;99.90;;;;;;4982875;28;20206;-95
2021/10/03 01:38:41;;;;;;;6.20;3.50;;;16.20;99.90;;;;;;4988785;28;20253;-96
2021/10/03 01:41:13;;;;;;;6.40;3.30;;;16.10;99.90;;;;;;5002174;28;20654;-96
2021/10/03 01:43:45;;;;;;;6.43;3.30;;;16.00;99.90;;;;;;5000042;28;20277;-95
2021/10/03 01:46:16;;;;;;;9.53;4.00;;;16.00;99.90;;;;;;4995745;28;20215;-96
2021/10/03 01:48:49;;;;;;;7.37;4.13;;;16.00;99.90;;;;;;5001085;28;20384;-96
2021/10/03 01:51:21;;;;;;;6.13;4.00;;;15.90;99.90;;;;;;5000664;28;20636;-96
2021/10/03 01:53:58;;;;;;;8.57;4.00;;;15.80;99.90;;;;;;4984278;28;20227;-94
2021/10/03 01:56:31;;;;;;;9.20;4.07;;;15.70;99.90;;;;;;4993521;28;20210;-93
2021/10/03 01:59:06;;;;;;;7.33;3.83;;;15.70;99.90;;;;;;5004063;28;20225;-96
2021/10/03 02:01:44;;;;;;;7.03;4.43;;;15.60;99.90;;;;;;5006928;28;20197;-95
2021/10/03 02:04:19;;;;;;;10.97;4.80;;;15.50;99.90;;;;;;5014747;28;20202;-94
2021/10/03 02:06:52;;;;;;;8.43;4.87;;;15.50;99.90;;;;;;4666386;28;9999935;-93
2021/10/03 02:09:28;;;;;;;8.77;4.60;;;15.40;99.90;;;;;;5014604;28;20201;-92
2021/10/03 02:12:02;;;;;;;9.37;4.80;;;15.30;99.90;;;;;;5014741;28;20190;-96
2021/10/03 02:14:34;;;;;;;9.03;5.13;;;15.30;99.90;;;;;;5013973;28;20254;-94
2021/10/03 02:17:07;;;;;;;6.77;5.43;;;15.30;99.90;;;;;;5013917;28;20210;-95
2021/10/03 02:19:42;;;;;;;11.03;5.43;;;15.20;99.90;;;;;;5006404;28;20210;-94
2021/10/03 02:22:19;;;;;;;19.43;9.77;;;15.10;99.90;;;;;;4991488;28;20205;-92
2021/10/03 02:24:56;;;;;;;13.63;8.73;;;15.10;99.90;;;;;;5001399;28;20210;-96
2021/10/03 02:27:30;;;;;;;8.83;6.23;;;15.10;99.90;;;;;;5000255;28;20209;-94
2021/10/03 02:30:02;;;;;;;10.60;6.13;;;15.00;99.90;;;;;;5002909;28;20222;-95
2021/10/03 02:32:37;;;;;;;11.97;5.23;;;15.00;99.90;;;;;;5003727;28;20202;-96
2021/10/03 02:35:12;;;;;;;7.30;4.97;;;14.90;99.90;;;;;;5004506;28;20248;-95
2021/10/03 02:40:34;;;;;;;10.57;5.20;;;14.90;99.90;;;;;;5003915;28;20222;-96
2021/10/03 02:43:08;;;;;;;9.30;4.90;;;14.80;99.90;;;;;;5003268;28;20281;-93
2021/10/03 02:45:42;;;;;;;9.30;5.17;;;14.70;99.90;;;;;;5015229;28;20209;-93
2021/10/03 02:48:13;;;;;;;10.17;4.70;;;14.70;99.90;;;;;;5015839;28;20209;-93
2021/10/03 02:50:46;;;;;;;11.73;4.70;;;14.70;99.90;;;;;;5012798;28;20635;-93
2021/10/03 02:53:18;;;;;;;8.63;4.57;;;14.60;99.90;;;;;;5006605;28;20202;-94
2021/10/03 02:55:51;;;;;;;7.37;4.67;;;14.60;99.90;;;;;;5007575;28;20206;-95
2021/10/03 03:00:59;;;;;;;12.70;5.10;;;14.60;99.90;;;;;;5061412;23;20224;-94
2021/10/03 03:03:33;;;;;;;8.90;4.40;;;14.60;99.90;;;;;;5018555;28;20201;-96
2021/10/03 03:06:04;;;;;;;8.50;4.67;;;14.70;99.90;;;;;;5016548;28;20209;-93
2021/10/03 03:08:36;;;;;;;5.03;4.20;;;14.70;99.90;;;;;;5045212;23;20237;-93
2021/10/03 03:11:11;;;;;;;8.00;4.53;;;14.80;99.90;;;;;;5019822;28;20204;-92
2021/10/03 03:13:42;;;;;;;8.90;5.00;;;14.80;99.90;;;;;;5005773;28;20217;-92
2021/10/03 03:16:16;;;;;;;10.33;4.77;;;14.70;99.90;;;;;;5010124;28;20214;-92
2021/10/03 03:18:48;;;;;;;7.63;4.47;;;14.60;99.90;;;;;;5021316;28;20283;-93
2021/10/03 03:21:19;;;;;;;11.93;5.37;;;14.70;99.90;;;;;;5017170;28;20202;-91
2021/10/03 03:23:52;;;;;;;9.47;4.90;;;14.70;99.90;;;;;;5031153;28;20213;-92
2021/10/03 03:26:25;;;;;;;7.90;5.00;;;14.70;99.90;;;;;;5027555;28;20221;-93
2021/10/03 03:28:57;;;;;;;7.27;4.97;;;14.70;99.90;;;;;;5021547;28;20316;-94
2021/10/03 03:31:28;;;;;;;6.53;5.03;;;14.70;99.90;;;;;;5019981;28;20229;-93
2021/10/03 03:34:01;;;;;;;8.17;4.80;;;14.70;99.90;;;;;;5030698;28;20219;-94
2021/10/03 03:36:32;;;;;;;7.00;4.87;;;14.60;99.90;;;;;;5015502;28;20647;-94
2021/10/03 03:39:05;;;;;;;7.47;4.73;;;14.70;99.90;;;;;;5011034;28;20233;-95
2021/10/03 03:41:38;;;;;;;8.13;5.10;;;14.60;99.90;;;;;;5026602;28;20214;-95
2021/10/03 03:44:11;;;;;;;6.70;4.30;;;14.50;99.90;;;;;;5023334;28;20219;-95
2021/10/03 03:46:43;;;;;;;7.43;4.63;;;14.50;99.90;;;;;;5024808;28;20198;-95
2021/10/03 03:49:16;;;;;;;8.67;5.47;;;14.50;99.90;;;;;;5033094;28;20220;-95
2021/10/03 03:51:51;;;;;;;9.40;4.87;;;14.40;99.90;;;;;;5025760;28;20193;-95
2021/10/03 03:54:22;;;;;;;10.40;5.33;;;14.40;99.90;;;;;;5023519;28;20216;-95
2021/10/03 03:56:58;;;;;;;9.57;4.77;;;14.40;99.90;;;;;;5021092;28;20214;-95
2021/10/03 03:59:31;;;;;;;9.03;4.70;;;14.30;99.90;;;;;;5007508;28;20238;-94
2021/10/03 04:02:02;;;;;;;7.23;4.23;;;14.30;99.90;;;;;;5009087;28;20260;-94
2021/10/03 04:04:34;;;;;;;5.93;3.47;;;14.30;99.90;;;;;;5022902;28;20252;-94
2021/10/03 04:07:06;;;;;;;6.27;3.50;;;14.30;99.90;;;;;;5021477;28;20300;-92
2021/10/03 04:09:38;;;;;;;7.83;3.40;;;14.40;99.90;;;;;;5024555;28;20225;-91
2021/10/03 04:12:11;;;;;;;4.77;2.87;;;14.50;99.90;;;;;;5024001;28;20202;-91
2021/10/03 04:14:43;;;;;;;5.90;2.83;;;14.50;99.90;;;;;;5021892;28;20280;-92
2021/10/03 04:17:16;;;;;;;5.03;2.70;;;14.60;99.90;;;;;;5022403;28;20202;-92
2021/10/03 04:19:47;;;;;;;5.27;3.10;;;14.70;99.90;;;;;;5022017;28;20324;-92
2021/10/03 04:22:19;;;;;;;3.63;2.67;;;14.70;99.90;;;;;;5022435;28;20202;-92
2021/10/03 04:24:51;;;;;;;6.37;2.50;;;14.80;99.90;;;;;;5022517;28;20201;-92
2021/10/03 04:27:25;;;;;;;5.07;2.03;;;14.80;99.90;;;;;;5027188;28;20221;-92
2021/10/03 04:29:56;;;;;;;5.97;2.30;;;14.80;99.90;;;;;;5022378;28;20237;-91
2021/10/03 04:32:32;;;;;;;6.30;2.73;;;14.90;99.90;;;;;;5025107;28;20201;-92
2021/10/03 04:35:04;;;;;;;5.07;1.97;;;14.80;99.90;;;;;;5024022;28;20220;-94
2021/10/03 04:37:36;;;;;;;5.47;1.97;;;14.80;99.90;;;;;;5024448;28;20222;-93
2021/10/03 04:40:09;;;;;;;4.57;2.17;;;14.70;99.90;;;;;;5024790;28;20237;-93
2021/10/03 04:42:56;;;;;;;2.40;1.63;;;14.70;99.90;;;;;;5024365;28;20240;-93
2021/10/03 04:45:30;;;;;;;4.23;2.00;;;14.70;99.90;;;;;;5011088;28;20226;-94
2021/10/03 04:48:03;;;;;;;5.40;2.07;;;14.60;99.90;;;;;;5006549;28;20293;-93
2021/10/03 04:50:45;;;;;;;5.57;2.07;;;14.60;99.90;;;;;;5010528;28;20201;-93
2021/10/03 04:53:16;;;;;;;6.87;2.10;;;14.50;99.90;;;;;;5019231;28;20206;-92
2021/10/03 04:55:48;;;;;;;5.20;2.07;;;14.50;99.90;;;;;;5018455;28;20186;-93
2021/10/03 04:58:22;;;;;;;5.40;2.00;;;14.40;99.90;;;;;;5064895;23;20244;-94
2021/10/03 05:00:54;;;;;;;3.10;2.03;;;14.40;99.90;;;;;;5037546;28;20229;-93
2021/10/03 05:03:26;;;;;;;4.83;1.83;;;14.40;99.90;;;;;;5038674;28;20228;-92
2021/10/03 05:05:58;;;;;;;11.27;2.23;;;14.40;99.90;;;;;;5037496;28;20190;-93
2021/10/03 05:08:29;;;;;;;8.50;2.77;;;14.40;99.90;;;;;;5032304;28;20221;-93
2021/10/03 05:11:00;;;;;;;3.23;2.00;;;14.40;99.90;;;;;;5020522;28;20240;-92
2021/10/03 05:13:35;;;;;;;3.57;1.83;;;14.40;99.90;;;;;;5021112;28;20202;-92
2021/10/03 05:16:07;;;;;;;3.17;1.70;;;14.40;99.90;;;;;;5018626;28;20201;-92
2021/10/03 05:18:39;;;;;;;3.23;1.40;;;14.40;99.90;;;;;;5017670;28;20205;-91
2021/10/03 05:21:13;;;;;;;3.63;1.40;;;14.40;99.90;;;;;;5000173;28;20213;-92
2021/10/03 05:23:44;;;;;;;4.70;2.00;;;14.40;99.90;;;;;;5012241;28;20665;-92
2021/10/03 05:26:15;;;;;;;6.77;2.07;;;14.40;99.90;;;;;;5017709;28;20225;-92
2021/10/03 05:28:50;;;;;;;4.13;1.70;;;14.30;99.90;;;;;;5018146;28;20232;-92
2021/10/03 05:31:21;;;;;;;5.03;1.73;;;14.40;99.90;;;;;;5019888;28;20279;-91
2021/10/03 05:33:53;;;;;;;4.53;1.80;;;14.30;99.90;;;;;;5018590;28;20209;-92
2021/10/03 05:36:25;;;;;;;3.90;1.70;;;14.30;99.90;;;;;;4997941;28;20293;-91
2021/10/03 05:38:59;;;;;;;4.97;1.50;;;14.30;99.90;;;;;;4998909;28;20238;-91
2021/10/03 05:41:36;;;;;;;3.80;1.57;;;14.20;99.90;;;;;;4998780;28;20689;-93
2021/10/03 05:44:09;;;;;;;3.27;1.70;;;14.20;99.90;;;;;;5005139;28;20700;-94
2021/10/03 05:46:41;;;;;;;5.87;1.80;;;14.20;99.90;;;;;;4998473;28;20297;-94
2021/10/03 05:49:14;;;;;;;5.07;1.60;;;14.20;99.90;;;;;;4998927;28;20210;-94
2021/10/03 05:51:48;;;;;;;3.93;1.57;;;14.20;99.90;;;;;;4999030;28;20209;-94
2021/10/03 05:54:21;;;;;;;4.97;1.67;;;14.10;99.90;;;;;;5000265;28;20257;-94
2021/10/03 05:56:52;;;;;;;8.37;1.90;;;14.10;99.90;;;;;;5000104;28;20655;-94
2021/10/03 05:59:26;;;;;;;3.70;1.70;;;14.10;99.90;;;;;;4999237;28;20203;-94
2021/10/03 06:01:57;;;;;;;3.97;1.70;;;14.10;99.90;;;;;;5001640;28;20255;-95
2021/10/03 06:04:29;;;;;;;5.67;1.67;;;14.00;99.90;;;;;;5018432;28;20201;-94
2021/10/03 06:07:02;;;;;;;6.73;2.27;;;14.00;99.90;;;;;;5019745;28;20210;-93
2021/10/03 06:09:34;;;;;;;6.43;1.90;;;14.00;99.90;;;;;;5017803;28;20244;-94
2021/10/03 06:12:07;;;;;;;4.07;1.90;;;14.00;99.90;;;;;;5017892;28;20593;-92
2021/10/03 06:14:39;;;;;;;4.80;1.50;;;13.90;99.90;;;;;;5018697;28;20220;-93
2021/10/03 06:17:11;;;;;;;4.13;1.50;;;13.90;99.90;;;;;;5017165;28;20236;-92
2021/10/03 06:19:42;;;;;;;4.97;1.60;;;13.80;99.90;;;;;;5018267;28;20221;-92
2021/10/03 06:22:15;;;;;;;5.00;1.87;;;13.80;99.90;;;;;;5017568;28;20229;-92
2021/10/03 06:24:46;;;;;;;5.37;1.70;;;13.70;99.90;;;;;;5017872;28;20213;-93
2021/10/03 06:27:18;;;;;;;4.20;1.80;;;13.70;99.90;;;;;;5016792;28;20292;-93
2021/10/03 06:29:53;;;;;;;3.67;1.57;;;13.70;99.90;;;;;;5018606;28;20240;-92
2021/10/03 06:32:24;;;;;;;5.03;1.40;;;13.80;99.90;;;;;;5017744;28;20237;-92
2021/10/03 06:34:57;;;;;;;3.53;1.50;;;13.70;99.90;;;;;;5017269;28;20654;-92
2021/10/03 06:37:29;;;;;;;5.43;1.77;;;13.70;99.90;;;;;;5017537;28;20217;-92
2021/10/03 06:40:01;;;;;;;8.03;1.60;;;13.70;99.90;;;;;;5018265;28;20288;-93
2021/10/03 06:42:33;;;;;;;3.40;1.57;;;13.70;99.90;;;;;;5016678;28;20205;-94
2021/10/03 06:45:08;;;;;;;3.50;1.33;;;13.70;99.90;;;;;;5018466;28;20213;-94
2021/10/03 06:47:39;;;;;;;3.30;1.70;;;13.80;99.90;;;;;;5019679;28;20364;-94
2021/10/03 06:50:12;;;;;;;3.00;1.33;;;13.80;99.90;;;;;;5022575;28;20240;-93
2021/10/03 06:52:43;;;;;;;5.23;2.10;;;13.80;99.90;;;;;;5022148;28;20247;-93
2021/10/03 06:55:15;;;;;;;5.47;2.03;;;13.70;99.90;;;;;;5022197;28;20259;-93
2021/10/03 06:57:47;;;;;;;2.83;1.50;;;13.70;99.90;;;;;;5022523;28;20217;-93
2021/10/03 07:00:21;;;;;;;3.03;1.70;;;13.60;99.90;;;;;;5021653;28;20236;-93
2021/10/03 07:02:53;;;;;;;3.90;1.70;;;13.60;99.90;;;;;;5023421;28;20225;-93
2021/10/03 07:05:24;;;;;;;10.47;1.97;;;13.60;99.90;;;;;;5005278;28;20206;-94
2021/10/03 07:07:55;;;;;;;6.20;1.87;;;13.60;99.90;;;;;;5022613;28;20210;-94
2021/10/03 07:10:27;;;;;;;6.33;1.90;;;13.50;99.90;;;;;;5023056;28;20209;-93
2021/10/03 07:13:00;;;;;;;5.83;1.80;;;13.50;99.90;;;;;;5028568;28;20194;-92
2021/10/03 07:15:33;;;;;;;4.70;1.70;;;13.50;99.90;;;;;;5039867;28;20206;-92
2021/10/03 07:18:07;;;;;;;6.83;1.97;;;13.50;99.90;;;;;;5040010;28;20184;-92
2021/10/03 07:20:41;;;;;;;5.30;1.70;;;13.50;99.90;;;;;;5027085;28;20237;-93
2021/10/03 07:23:12;;;;;;;4.77;1.83;;;13.50;99.90;;;;;;5028027;28;20217;-92
2021/10/03 07:25:43;;;;;;;3.23;1.50;;;13.40;99.90;;;;;;5025528;28;20206;-92
2021/10/03 07:28:15;;;;;;;5.73;2.03;;;13.40;99.90;;;;;;5020858;28;20225;-93
2021/10/03 07:30:49;;;;;;;3.23;1.57;;;13.40;99.90;;;;;;5021320;28;20233;-92
2021/10/03 07:33:21;;;;;;;2.93;1.47;;;13.50;99.90;;;;;;5021951;28;20202;-93
2021/10/03 07:35:52;;;;;;;6.53;1.87;;;13.40;99.90;;;;;;5020376;28;20206;-92
2021/10/03 07:38:24;;;;;;;6.27;1.80;;;13.50;99.90;;;;;;5022984;28;20289;-92
2021/10/03 07:40:55;;;;;;;3.77;1.90;;;13.50;99.90;;;;;;5021105;28;20288;-92
2021/10/03 07:43:26;;;;;;;5.77;1.60;;;13.50;99.90;;;;;;5021276;28;20240;-93
2021/10/03 07:46:01;;;;;;;2.97;1.50;;;13.50;99.90;;;;;;5020959;28;20220;-93
2021/10/03 07:48:33;;;;;;;4.43;1.50;;;13.50;99.90;;;;;;5022907;28;20209;-94
2021/10/03 07:51:06;;;;;;;5.70;1.87;;;13.50;99.90;;;;;;5021844;28;20206;-94
2021/10/03 07:53:37;;;;;;;8.33;1.73;;;13.50;99.90;;;;;;5021085;28;20645;-93
2021/10/03 07:56:10;;;;;;;6.57;1.70;;;13.60;99.90;;;;;;5019678;28;20217;-92
2021/10/03 07:58:41;;;;;;;2.63;1.43;;;13.50;99.90;;;;;;5020783;28;20659;-94
2021/10/03 08:01:16;;;;;;;5.40;1.80;;;13.50;99.90;;;;;;5021220;28;20320;-94
2021/10/03 08:03:47;;;;;;;6.60;1.73;;;13.60;99.90;;;;;;5020823;28;20216;-94
2021/10/03 08:06:18;;;;;;;4.57;1.70;;;13.50;99.90;;;;;;5020502;28;20201;-94
2021/10/03 08:08:50;;;;;;;5.60;1.73;;;13.60;99.90;;;;;;5020959;28;20244;-94
2021/10/03 08:11:26;;;;;;;3.07;1.67;;;13.60;99.90;;;;;;5021087;28;20666;-94
2021/10/03 08:13:59;;;;;;;3.47;1.60;;;13.60;99.90;;;;;;5012038;28;20217;-93
2021/10/03 08:16:35;;;;;;;6.43;1.43;;;13.60;99.90;;;;;;5001006;28;20681;-92
2021/10/03 08:19:07;;;;;;;5.07;1.90;;;13.60;99.90;;;;;;5002948;28;20203;-92
2021/10/03 08:21:40;;;;;;;6.00;1.83;;;13.60;99.90;;;;;;5000604;28;20257;-92
2021/10/03 08:24:11;;;;;;;7.17;1.97;;;13.60;99.90;;;;;;4999175;28;20214;-92
2021/10/03 08:26:43;;;;;;;7.03;1.90;;;13.60;99.90;;;;;;5005230;28;20205;-93
2021/10/03 08:29:14;;;;;;;5.23;1.63;;;13.60;99.90;;;;;;5019961;28;20671;-92
2021/10/03 08:31:47;;;;;;;6.17;2.47;;;13.60;99.90;;;;;;5019202;28;20298;-91
2021/10/03 08:34:19;;;;;;;8.37;2.10;;;13.60;99.90;;;;;;5019724;28;20232;-93
2021/10/03 08:36:50;;;;;;;6.17;2.00;;;13.50;99.90;;;;;;5019020;28;20240;-93
2021/10/03 08:39:21;;;;;;;5.83;2.47;;;13.50;99.90;;;;;;5019337;28;20220;-92
2021/10/03 08:41:53;;;;;;;7.20;2.20;;;13.50;99.90;;;;;;5018926;28;20234;-92
2021/10/03 08:44:27;;;;;;;8.83;1.93;;;13.50;99.90;;;;;;5019189;28;20217;-92
2021/10/03 08:47:01;;;;;;;7.77;1.97;;;13.50;99.90;;;;;;5018864;28;20225;-93
2021/10/03 08:49:34;;;;;;;6.30;2.20;;;13.50;99.90;;;;;;5019967;28;20213;-93
2021/10/03 08:52:05;;;;;;;4.63;1.90;;;13.50;99.90;;;;;;5019629;28;20217;-94
2021/10/03 08:54:38;;;;;;;5.80;1.90;;;13.50;99.90;;;;;;5019300;28;20296;-94
2021/10/03 08:57:12;;;;;;;5.43;2.03;;;13.50;99.90;;;;;;5013363;28;20709;-94
2021/10/03 09:00:09;;;;;;;5.33;2.13;;;13.50;99.90;;;;;;4999550;28;20241;-94
2021/10/03 09:03:20;;;;;;;6.17;2.17;;;13.50;99.90;;;;;;5000000;28;20591;-94
2021/10/03 09:05:53;;;;;;;9.67;2.30;;;13.50;99.90;;;;;;4998837;28;20233;-94
2021/10/03 09:08:25;;;;;;;4.30;1.87;;;13.50;99.90;;;;;;5000452;28;20237;-94
2021/10/03 09:11:01;;;;;;;5.67;1.90;;;13.50;99.90;;;;;;4999026;28;20296;-94
2021/10/03 09:13:48;;;;;;;3.70;2.00;;;13.50;99.90;;;;;;5000001;28;20686;-92
2021/10/03 09:16:23;;;;;;;6.00;1.87;;;13.50;99.90;;;;;;5000952;28;20216;-92
2021/10/03 09:19:00;;;;;;;10.37;2.40;;;13.50;99.90;;;;;;5008688;28;20210;-90
2021/10/03 09:21:41;;;;;;;8.37;2.00;;;13.50;99.90;;;;;;5015867;28;20241;-91
2021/10/03 09:24:14;;;;;;;6.83;1.97;;;13.50;99.90;;;;;;5004960;28;20774;-92
2021/10/03 09:26:56;;;;;;;7.07;2.10;;;13.50;99.90;;;;;;5008296;28;20245;-93
2021/10/03 09:29:32;;;;;;;5.37;1.77;;;13.50;99.90;;;;;;5015757;28;20214;-92
2021/10/03 09:32:12;;;;;;;7.00;1.93;;;13.50;99.90;;;;;;5048686;23;20224;-92
2021/10/03 09:34:51;;;;;;;4.40;1.53;;;13.50;99.90;;;;;;5033177;28;20246;-93
2021/10/03 09:37:25;;;;;;;8.53;1.97;;;13.60;99.90;;;;;;5029738;28;20622;-93
2021/10/03 09:40:06;;;;;;;7.97;2.30;;;13.50;99.90;;;;;;5020292;28;20302;-93
2021/10/03 09:42:39;;;;;;;9.43;1.93;;;13.50;99.90;;;;;;5018560;28;20232;-93
2021/10/03 09:45:13;;;;;;;5.83;1.60;;;13.50;99.90;;;;;;5019539;28;20201;-93
2021/10/03 09:47:47;;;;;;;5.33;1.60;;;13.50;99.90;;;;;;5018667;28;20242;-95
2021/10/03 09:50:20;;;;;;;8.37;2.00;;;13.50;99.90;;;;;;5019509;28;20617;-95
2021/10/03 09:52:52;;;;;;;4.67;2.07;;;13.50;99.90;;;;;;5050853;22;20345;-95
2021/10/03 09:55:27;;;;;;;7.03;1.73;;;13.50;99.90;;;;;;5048903;22;20241;-94
2021/10/03 09:58:01;;;;;;;5.60;1.70;;;13.50;99.90;;;;;;5020454;28;20209;-94
2021/10/03 10:00:32;;;;;;;7.33;1.77;;;13.40;99.90;;;;;;5019651;28;20301;-95
2021/10/03 10:03:07;;;;;;;7.40;2.27;;;13.40;99.90;;;;;;5019290;28;20238;-94
2021/10/03 10:05:41;;;;;;;4.17;1.87;;;13.40;99.90;;;;;;5018644;28;20206;-94
2021/10/03 10:08:13;;;;;;;8.63;2.00;;;13.40;99.90;;;;;;5019782;28;20268;-93
2021/10/03 10:10:45;;;;;;;5.10;2.13;;;13.30;99.90;;;;;;5019716;28;20283;-95
2021/10/03 10:13:19;;;;;;;4.27;1.73;;;13.40;99.90;;;;;;5018441;28;20237;-94
2021/10/03 10:15:51;;;;;;;5.37;2.00;;;13.40;99.90;;;;;;5020353;28;20201;-94
2021/10/03 10:18:24;;;;;;;4.20;1.80;;;13.40;99.90;;;;;;5020995;28;20237;-93
2021/10/03 10:20:58;;;;;;;5.73;2.20;;;13.40;99.90;;;;;;5022364;28;20229;-93
2021/10/03 10:23:32;;;;;;;5.77;1.90;;;13.40;99.90;;;;;;5123766;23;20256;-93
2021/10/03 10:26:05;;;;;;;5.90;2.00;;;13.40;99.90;;;;;;5036284;28;20264;-93
2021/10/03 10:28:38;;;;;;;5.20;1.83;;;13.40;99.90;;;;;;5036488;28;20269;-92
2021/10/03 10:31:13;;;;;;;4.10;1.87;;;13.40;99.90;;;;;;5035093;28;20232;-93
2021/10/03 10:34:16;;;;;;;8.87;2.37;;;13.40;99.90;;;;;;5034188;28;20233;-94
2021/10/03 10:36:57;;;;;;;5.23;2.03;;;13.50;99.90;;;;;;5032916;28;20581;-94
2021/10/03 10:39:30;;;;;;;3.30;1.70;;;13.40;99.90;;;;;;5062857;23;20243;-93
2021/10/03 10:42:03;;;;;;;5.90;1.90;;;13.40;99.90;;;;;;5057462;28;20256;-94
2021/10/03 10:44:42;;;;;;;5.73;1.83;;;13.40;99.90;;;;;;5057369;28;20203;-93
2021/10/03 10:47:21;;;;;;;5.97;2.07;;;13.40;99.90;;;;;;5057005;28;20215;-95
2021/10/03 10:49:54;;;;;;;5.87;1.87;;;13.40;99.90;;;;;;5052782;28;20205;-95
2021/10/03 10:52:46;;;;;;;7.53;2.13;;;13.40;99.90;;;;;;5036382;28;20208;-95
2021/10/03 10:55:34;;;;;;;7.33;2.30;;;13.40;99.90;;;;;;5036563;28;20205;-95
2021/10/03 10:58:24;;;;;;;4.60;2.13;;;13.40;99.90;;;;;;5036533;28;20688;-95
2021/10/03 11:01:11;;;;;;;6.07;2.13;;;13.40;99.90;;;;;;5037130;28;20288;-95
2021/10/03 11:04:10;;;;;;;8.47;2.13;;;13.50;99.90;;;;;;5035926;28;20611;-94
2021/10/03 11:07:06;;;;;;;7.57;2.07;;;13.40;99.90;;;;;;5034711;28;20239;-95
2021/10/03 11:10:05;;;;;;;6.50;2.10;;;13.40;99.90;;;;;;5036628;28;20259;-95
2021/10/03 11:12:36;;;;;;;8.07;2.37;;;13.40;99.90;;;;;;5036465;28;20220;-93
2021/10/03 11:15:27;;;;;;;9.47;2.20;;;13.30;99.90;;;;;;5036299;28;20295;-93
2021/10/03 11:18:06;;;;;;;7.90;2.03;;;13.40;99.90;;;;;;5036015;28;20617;-92
2021/10/03 11:20:57;;;;;;;7.47;3.07;;;13.40;99.90;;;;;;5036698;28;20205;-92
2021/10/03 11:23:28;;;;;;;6.47;2.63;;;13.40;99.90;;;;;;5037070;28;20268;-91
2021/10/03 11:26:08;;;;;;;8.57;2.13;;;13.30;99.90;;;;;;5036590;28;20283;-92
2021/10/03 11:28:53;;;;;;;8.60;2.43;;;13.30;99.90;;;;;;5035660;28;20231;-91
2021/10/03 11:31:38;;;;;;;6.07;2.10;;;13.40;99.90;;;;;;5037136;28;20259;-91
2021/10/03 11:34:10;;;;;;;4.23;1.60;;;13.40;99.90;;;;;;5037612;28;20272;-92
2021/10/03 11:36:52;;;;;;;13.13;2.40;;;13.40;99.90;;;;;;5038459;28;20243;-92
2021/10/03 11:39:39;;;;;;;9.83;2.27;;;13.40;99.90;;;;;;5039832;28;20229;-92
2021/10/03 11:42:14;;;;;;;5.97;1.90;;;13.40;99.90;;;;;;5042531;28;20292;-92
2021/10/03 11:44:46;;;;;;;8.87;2.20;;;13.40;99.90;;;;;;5040815;28;20212;-92
2021/10/03 11:47:19;;;;;;;7.50;1.90;;;13.40;99.90;;;;;;5054989;28;20195;-94
2021/10/03 11:49:50;;;;;;;7.87;2.00;;;13.40;99.90;;;;;;5059419;28;20208;-93
2021/10/03 11:52:34;;;;;;;7.70;1.97;;;13.50;99.90;;;;;;5062205;28;20239;-94
2021/10/03 11:55:08;;;;;;;8.20;2.30;;;13.50;99.90;;;;;;5060769;28;20208;-94
2021/10/03 11:57:43;;;;;;;6.83;1.90;;;13.50;99.90;;;;;;5043796;28;20230;-94
2021/10/03 12:00:21;;;;;;;7.67;2.00;;;13.50;99.90;;;;;;5041365;28;20208;-94
2021/10/03 12:02:54;;;;;;;7.67;2.33;;;13.50;99.90;;;;;;5044708;28;20220;-94
2021/10/03 12:05:28;;;;;;;6.87;1.97;;;13.50;99.90;;;;;;5039484;28;20232;-94
2021/10/03 12:08:04;;;;;;;5.20;1.80;;;13.50;99.90;;;;;;5044473;28;20220;-94
2021/10/03 12:10:41;;;;;;;6.50;2.17;;;13.60;99.90;;;;;;5039729;28;20215;-94
2021/10/03 12:13:17;;;;;;;6.63;2.07;;;13.50;99.90;;;;;;5038771;28;20280;-94
2021/10/03 12:15:53;;;;;;;9.10;2.40;;;13.60;99.90;;;;;;5039512;28;20239;-94
2021/10/03 12:18:45;;;;;;;4.93;1.40;;;13.60;99.90;;;;;;5039282;28;20248;-93
2021/10/03 12:21:22;;;;;;;6.27;1.63;;;13.60;99.90;;;;;;5039332;28;20241;-93
2021/10/03 12:23:56;;;;;;;6.83;1.80;;;13.60;99.90;;;;;;5038913;28;20335;-93
2021/10/03 12:26:33;;;;;;;6.00;1.57;;;13.60;99.90;;;;;;5038145;28;20244;-92
2021/10/03 12:29:18;;;;;;;5.87;1.43;;;13.70;99.90;;;;;;5038960;28;20208;-92
2021/10/03 12:31:52;;;;;;;5.13;1.50;;;13.70;99.90;;;;;;5038237;28;20240;-92
2021/10/03 12:34:35;;;;;;;12.83;1.97;;;13.70;99.90;;;;;;5038913;28;20269;-92
2021/10/03 12:37:32;;;;;;;5.10;1.70;;;13.80;99.90;;;;;;5039065;28;20208;-92
2021/10/03 12:40:05;;;;;;;7.07;1.73;;;13.80;99.90;;;;;;5037708;28;20228;-92
2021/10/03 12:42:40;;;;;;;6.37;1.43;;;13.80;99.90;;;;;;5039134;28;20240;-92
2021/10/03 12:45:13;;;;;;;4.57;1.67;;;13.70;99.90;;;;;;5037709;28;20267;-92
2021/10/03 12:47:45;;;;;;;5.40;1.40;;;13.70;99.90;;;;;;5038733;28;20232;-94
2021/10/03 12:50:16;;;;;;;7.67;1.60;;;13.70;99.90;;;;;;5037668;28;20216;-93
2021/10/03 12:52:48;;;;;;;7.33;1.93;;;13.80;99.90;;;;;;5038908;28;20201;-94
2021/10/03 12:55:19;;;;;;;8.00;1.90;;;13.80;99.90;;;;;;5037590;28;20240;-94
2021/10/03 12:57:51;;;;;;;7.47;2.17;;;13.80;99.90;;;;;;5048633;28;20216;-94
2021/10/03 13:00:24;;;;;;;7.07;1.73;;;13.80;99.90;;;;;;5059147;28;20268;-94
2021/10/03 13:02:56;;;;;;;5.03;1.50;;;13.80;99.90;;;;;;5058479;28;20208;-94
2021/10/03 13:05:27;;;;;;;8.27;2.10;;;13.80;99.90;;;;;;5054182;28;20281;-94
2021/10/03 13:08:00;;;;;;;6.20;1.40;;;13.80;99.90;;;;;;5038485;28;20213;-94
2021/10/03 13:10:33;;;;;;;6.33;1.77;;;13.80;99.90;;;;;;5038385;28;20303;-93
2021/10/03 13:13:05;;;;;;;6.17;1.80;;;13.80;99.90;;;;;;5037503;28;20213;-93
2021/10/03 13:15:40;;;;;;;4.87;1.47;;;13.80;99.90;;;;;;5038043;28;20212;-93
2021/10/03 13:18:11;;;;;;;5.33;1.90;;;13.80;99.90;;;;;;5038976;28;20301;-92
2021/10/03 13:20:43;;;;;;;7.23;1.90;;;13.80;99.90;;;;;;5038367;28;20589;-91
2021/10/03 13:23:14;;;;;;;3.70;1.30;;;13.80;99.90;;;;;;5038243;28;20220;-91
2021/10/03 13:25:47;;;;;;;8.47;1.97;;;13.80;99.90;;;;;;5037603;28;20569;-92
2021/10/03 13:28:18;;;;;;;7.60;1.93;;;13.80;99.90;;;;;;5037311;28;20209;-93
2021/10/03 13:30:52;;;;;;;4.80;1.60;;;13.80;99.90;;;;;;5038778;28;20296;-92